ADDS METAR Data INFO
IDs: Format: Raw Decoded Include TAF

Data at: 0127 UTC 23 Nov 2017

METAR for:PADK (Adak (NAS), AK, US)
Text:PADK 230056Z AUTO 30008KT 250V350 10SM OVC039 05/M02 A3022 RMK AO2 PK WND 27034/0001 SLP233 T00501022
Temperature: 5.0°C ( 41°F)
Dewpoint: -2.2°C ( 28°F) [RH = 60%]
Pressure (altimeter):30.22 inches Hg (1023.5 mb) [Sea level pressure: 1023.3 mb]
Winds:from the WNW (300 degrees) at 9 MPH (8 knots; 4.1 m/s)
Visibility:10 or more sm (16+ km)
Ceiling:3900 feet AGL
Clouds: overcast cloud deck at 3900 feet AGL
QC Flag:automated observation with no human augmentation
Text:PADK 222356Z AUTO 29019G30KT 10SM BKN043 06/M02 A3018 RMK AO2 PK WND 30030/2350 SLP220 60000 T00561022 10061 20056 51030
Temperature: 5.6°C ( 42°F)
Dewpoint: -2.2°C ( 28°F) [RH = 57%]
Pressure (altimeter):30.18 inches Hg (1022.1 mb) [Sea level pressure: 1022.0 mb]
Winds:from the WNW (290 degrees) at 22 MPH (19 knots; 9.8 m/s) gusting to 34 MPH (30 knots; 15.4 m/s)
Visibility:10 or more sm (16+ km)
Ceiling:4300 feet AGL
Clouds: broken clouds at 4300 feet AGL
QC Flag:automated observation with no human augmentation
Text:PADK 222256Z AUTO 30017G21KT 10SM OVC039 06/M02 A3016 RMK AO2 PK WND 29031/2208 RAE12 SLP213 P0000 T00611017
Temperature: 6.1°C ( 43°F)
Dewpoint: -1.7°C ( 29°F) [RH = 57%]
Pressure (altimeter):30.16 inches Hg (1021.4 mb) [Sea level pressure: 1021.3 mb]
Winds:from the WNW (300 degrees) at 20 MPH (17 knots; 8.7 m/s) gusting to 24 MPH (21 knots; 10.8 m/s)
Visibility:10 or more sm (16+ km)
Ceiling:3900 feet AGL
Clouds: overcast cloud deck at 3900 feet AGL
QC Flag:automated observation with no human augmentation
Text:PADK 222231Z AUTO 29018G23KT 10SM BKN033 06/01 A3014 RMK AO2 PK WND 29031/2208 RAE12 P0000
Temperature: 6.0°C ( 43°F)
Dewpoint: 1.0°C ( 34°F) [RH = 70%]
Pressure (altimeter):30.14 inches Hg (1020.7 mb)
Winds:from the WNW (290 degrees) at 21 MPH (18 knots; 9.3 m/s) gusting to 26 MPH (23 knots; 11.8 m/s)
Visibility:10 or more sm (16+ km)
Ceiling:3300 feet AGL
Clouds: broken clouds at 3300 feet AGL
QC Flag:automated observation with no human augmentation
Text:PADK 222208Z AUTO 29022G31KT 10SM -RA FEW016 BKN028 BKN033 06/01 A3012 RMK AO2 PK WND 29031/2208 P0000
Temperature: 6.0°C ( 43°F)
Dewpoint: 1.0°C ( 34°F) [RH = 70%]
Pressure (altimeter):30.12 inches Hg (1020.1 mb)
Winds:from the WNW (290 degrees) at 25 MPH (22 knots; 11.3 m/s) gusting to 36 MPH (31 knots; 15.9 m/s)
Visibility:10 or more sm (16+ km)
Ceiling:2800 feet AGL
Clouds: few clouds at 1600 feet AGL, broken clouds at 2800 feet AGL, broken clouds at 3300 feet AGL
Weather:-RA (light rain)
QC Flag:automated observation with no human augmentation
Text:PADK 222156Z AUTO 29020G32KT 7SM -RA FEW016 BKN030 06/02 A3012 RMK AO2 PK WND 28034/2136 RAB14E26B50 SLP199 P0000 T00560017
Temperature: 5.6°C ( 42°F)
Dewpoint: 1.7°C ( 35°F) [RH = 76%]
Pressure (altimeter):30.12 inches Hg (1020.1 mb) [Sea level pressure: 1019.9 mb]
Winds:from the WNW (290 degrees) at 23 MPH (20 knots; 10.3 m/s) gusting to 37 MPH (32 knots; 16.5 m/s)
Visibility: 7 sm ( 11 km)
Ceiling:3000 feet AGL
Clouds: few clouds at 1600 feet AGL, broken clouds at 3000 feet AGL
Weather:-RA (light rain)
QC Flag:automated observation with no human augmentation
Text:PADK 222144Z AUTO 29023G34KT 10SM FEW021 SCT027 06/02 A3011 RMK AO2 PK WND 28034/2136 RAB14E26 P0000
Temperature: 6.0°C ( 43°F)
Dewpoint: 2.0°C ( 36°F) [RH = 75%]
Pressure (altimeter):30.11 inches Hg (1019.7 mb)
Winds:from the WNW (290 degrees) at 26 MPH (23 knots; 11.8 m/s) gusting to 39 MPH (34 knots; 17.5 m/s)
Visibility:10 or more sm (16+ km)
Ceiling:at least 12,000 feet AGL
Clouds: few clouds at 2100 feet AGL, scattered clouds at 2700 feet AGL
QC Flag:automated observation with no human augmentation
Text:PADK 222122Z AUTO 28021G28KT 10SM -RA FEW019 BKN027 BKN033 06/02 A3009 RMK AO2 PK WND 29028/2121 RAB14 P0000
Temperature: 6.0°C ( 43°F)
Dewpoint: 2.0°C ( 36°F) [RH = 75%]
Pressure (altimeter):30.09 inches Hg (1019.0 mb)
Winds:from the W (280 degrees) at 24 MPH (21 knots; 10.8 m/s) gusting to 32 MPH (28 knots; 14.4 m/s)
Visibility:10 or more sm (16+ km)
Ceiling:2700 feet AGL
Clouds: few clouds at 1900 feet AGL, broken clouds at 2700 feet AGL, broken clouds at 3300 feet AGL
Weather:-RA (light rain)
QC Flag:automated observation with no human augmentation
Text:PADK 222056Z AUTO 28013G23KT 10SM OVC032 06/02 A3009 RMK AO2 PK WND 28028/2043 SLP190 T00610017 51046
Temperature: 6.1°C ( 43°F)
Dewpoint: 1.7°C ( 35°F) [RH = 73%]
Pressure (altimeter):30.09 inches Hg (1019.0 mb) [Sea level pressure: 1019.0 mb]
Winds:from the W (280 degrees) at 15 MPH (13 knots; 6.7 m/s) gusting to 26 MPH (23 knots; 11.8 m/s)
Visibility:10 or more sm (16+ km)
Ceiling:3200 feet AGL
Clouds: overcast cloud deck at 3200 feet AGL
QC Flag:automated observation with no human augmentation
Text:PADK 221956Z AUTO 27005KT 10SM FEW025 OVC032 06/01 A3007 RMK AO2 PRESRR SLP181 T00610006
Temperature: 6.1°C ( 43°F)
Dewpoint: 0.6°C ( 33°F) [RH = 68%]
Pressure (altimeter):30.07 inches Hg (1018.4 mb) [Sea level pressure: 1018.1 mb]
Winds:from the W (270 degrees) at 6 MPH (5 knots; 2.6 m/s)
Visibility:10 or more sm (16+ km)
Ceiling:3200 feet AGL
Clouds: few clouds at 2500 feet AGL, overcast cloud deck at 3200 feet AGL
QC Flag:automated observation with no human augmentation
Text:PADK 221948Z AUTO 10005G16KT 10SM BKN028 OVC033 06/01 A3005 RMK AO2
Temperature: 6.0°C ( 43°F)
Dewpoint: 1.0°C ( 34°F) [RH = 70%]
Pressure (altimeter):30.05 inches Hg (1017.7 mb)
Winds:from the E (100 degrees) at 6 MPH (5 knots; 2.6 m/s) gusting to 18 MPH (16 knots; 8.2 m/s)
Visibility:10 or more sm (16+ km)
Ceiling:2800 feet AGL
Clouds: broken clouds at 2800 feet AGL, overcast cloud deck at 3300 feet AGL
QC Flag:automated observation with no human augmentation

TAF for:PADK (Adak (NAS), AK, US)
Text:No data found